TIFM7: Elk River, Tiff City, MO

Data processed at Thu May 23 2019 23:50


All information presented herein is the property of the government of the United States of America and may be revised or deleted at any time without prior notice.
Dissemination of this information without the expressed written consent of the Public Affairs Office, Tulsa District U.S. Army Corps of Engineers is strictly prohibited.
These data are gathered electronically and, as presented, have not undergone any form of quality control. These data are not guaranteed to be valid or correct.
Go to home page.
Go to station list.
Go to home page.

Upstream stations:

Downstream station:
Previous Day
Next Day
Current Day
    
SHEF ID:       TIFM7     Elk River near Tiff City, Mo
STATION TYPE:  
Regulating: Stage =    15.00, Flow =    19034

               PRECIP     STAGE  STAGE(2)  RIV-FLOW   VOLTAGE  BAT-LOAD
                   in        ft        ft       cfs      volt      volt
              Ccp-Rev   Ccp-Rev   Ccp-Rev   Ccp-Rev   Ccp-Rev   Ccp-Rev
(US/Central)
05/23 00:00      0.00     10.58     10.68      8686     12.90      ----
05/23 01:00      0.00     10.43     10.47      8409     12.90      ----
05/23 02:00      0.00     10.25     10.33      8084     12.90      ----
05/23 03:00      0.01     10.11     10.18      7836     12.90      ----
05/23 04:00      0.41     10.04     10.06      7714     12.80      ----
05/23 05:00      0.00      9.94      9.98      7540     12.80      ----
05/23 06:00      0.00      9.86      9.87      7403     12.80      ----
05/23 07:00      0.00      9.77      9.79      7251     12.80      ----
05/23 08:00      0.00      9.66      9.67      7067     13.00      ----
05/23 09:00      0.00      9.60      9.62      6967     13.40      ----
05/23 10:00      0.00      9.46      9.50      6739     13.40      ----
05/23 11:00      0.00      9.42      9.41      6674     13.50      ----
05/23 12:00      0.00      9.33      9.38      6530     13.70      ----
05/23 13:00      0.00      9.28      9.32      6450     14.10      ----
05/23 14:00      0.00      9.28      9.34      6450     13.90      ----
05/23 15:00      0.00      9.35      9.39      6562     13.40      ----
05/23 16:00      0.00      9.41      9.49      6658     13.90      ----
05/23 17:00      0.00      9.50      9.51      6804     13.40      ----
05/23 18:00      0.00      9.55      9.61      6885     13.00      ----
05/23 19:00      0.00      9.60      9.64      6967     13.00      ----
05/23 20:00      0.00      9.57      9.59      6918     12.90      ----
05/23 21:00      0.00      9.50      9.52      6804     12.90      ----
05/23 22:00      0.00      9.33      9.34      6530     12.90      ----
05/23 23:00      0.00      9.20      9.22      6324     12.90      ----